createdAt,value
2019-02-21T00:01:01.775Z,-4.00
2019-02-21T00:03:35.623Z,-3.90
2019-02-21T00:06:10.923Z,-3.80
2019-02-21T00:08:45.740Z,-3.70
2019-02-21T00:11:15.537Z,-3.70
2019-02-21T00:13:48.328Z,-3.60
2019-02-21T00:16:22.346Z,-3.60
2019-02-21T00:18:53.135Z,-3.60
2019-02-21T00:21:22.579Z,-3.50
2019-02-21T00:23:53.086Z,-3.50
2019-02-21T00:26:30.386Z,-3.40
2019-02-21T00:29:09.289Z,-3.30
2019-02-21T00:31:42.291Z,-3.30
2019-02-21T00:34:16.295Z,-3.20
2019-02-21T00:36:48.391Z,-3.10
2019-02-21T00:39:21.178Z,-3.10
2019-02-21T00:41:54.983Z,-3.10
2019-02-21T00:44:28.710Z,-3.10
2019-02-21T00:47:02.869Z,-3.00
2019-02-21T00:49:35.807Z,-3.00
2019-02-21T00:52:11.074Z,-2.90
2019-02-21T00:54:48.756Z,-2.90
2019-02-21T00:57:20.523Z,-2.90
2019-02-21T00:59:53.432Z,-2.90
2019-02-21T01:02:24.839Z,-2.90
2019-02-21T01:04:55.739Z,-2.90
2019-02-21T01:07:28.576Z,-2.90
2019-02-21T01:10:07.047Z,-2.90
2019-02-21T01:12:40.929Z,-2.90
2019-02-21T01:15:14.959Z,-2.80
2019-02-21T01:17:47.192Z,-2.70
2019-02-21T01:20:18.860Z,-2.70
2019-02-21T01:22:52.129Z,-2.60
2019-02-21T01:25:26.403Z,-2.60
2019-02-21T01:28:00.333Z,-2.50
2019-02-21T01:30:36.383Z,-2.50
2019-02-21T01:33:08.067Z,-2.50
2019-02-21T01:35:45.689Z,-2.50
2019-02-21T01:38:22.727Z,-2.50
2019-02-21T01:40:58.511Z,-2.40
2019-02-21T01:43:31.647Z,-2.40
2019-02-21T01:46:05.890Z,-2.40
2019-02-21T01:48:40.800Z,-2.40
2019-02-21T01:51:18.663Z,-2.40
2019-02-21T01:53:53.460Z,-2.40
2019-02-21T01:56:27.169Z,-2.40
2019-02-21T01:59:01.547Z,-2.40
2019-02-21T02:01:31.735Z,-2.30
2019-02-21T02:04:02.391Z,-2.30
2019-02-21T02:06:36.831Z,-2.30
2019-02-21T02:09:14.121Z,-2.30
2019-02-21T02:11:45.440Z,-2.30
2019-02-21T02:14:15.100Z,-2.30
2019-02-21T02:16:48.961Z,-2.30
2019-02-21T02:19:25.383Z,-2.30
2019-02-21T02:21:59.671Z,-2.20
2019-02-21T02:24:32.511Z,-2.10
2019-02-21T02:27:06.293Z,-2.10
2019-02-21T02:29:39.279Z,-2.10
2019-02-21T02:32:13.901Z,-2.10
2019-02-21T02:34:47.486Z,-2.10
2019-02-21T02:37:21.446Z,-2.10
2019-02-21T02:39:51.804Z,-2.10
2019-02-21T02:42:26.437Z,-2.00
2019-02-21T02:45:01.395Z,-2.00
2019-02-21T02:47:35.108Z,-2.00
2019-02-21T02:50:07.154Z,-2.00
2019-02-21T02:52:40.840Z,-2.00
2019-02-21T02:55:16.675Z,-2.00
2019-02-21T02:57:52.200Z,-2.00
2019-02-21T03:00:27.876Z,-2.00
2019-02-21T03:03:02.262Z,-2.00
2019-02-21T03:05:36.106Z,-2.00
2019-02-21T03:08:12.027Z,-2.10
2019-02-21T03:10:45.344Z,-2.10
2019-02-21T03:13:18.729Z,-2.10
2019-02-21T03:15:52.512Z,-2.10
2019-02-21T03:18:27.422Z,-2.10
2019-02-21T03:21:00.192Z,-2.20
2019-02-21T03:23:32.904Z,-2.20
2019-02-21T03:26:08.899Z,-2.20
2019-02-21T03:28:46.718Z,-2.20
2019-02-21T03:31:19.646Z,-2.20
2019-02-21T03:33:55.469Z,-2.20
2019-02-21T03:36:27.985Z,-2.20
2019-02-21T03:39:01.280Z,-2.20
2019-02-21T03:41:35.139Z,-2.20
2019-02-21T03:44:05.687Z,-2.20
2019-02-21T03:46:41.480Z,-2.10
2019-02-21T03:49:18.659Z,-2.10
2019-02-21T03:51:50.962Z,-2.10
2019-02-21T03:54:26.347Z,-2.10
2019-02-21T03:57:00.066Z,-2.10
2019-02-21T03:59:34.369Z,-2.00
2019-02-21T04:02:08.671Z,-2.00
2019-02-21T04:04:45.437Z,-2.00
2019-02-21T04:07:21.628Z,-1.90
2019-02-21T04:09:55.118Z,-1.90
2019-02-21T04:12:28.290Z,-1.90
2019-02-21T04:15:04.905Z,-2.00
2019-02-21T04:17:34.564Z,-1.90
2019-02-21T04:20:05.771Z,-1.90
2019-02-21T04:22:40.076Z,-1.90
2019-02-21T04:25:14.974Z,-1.90
2019-02-21T04:27:53.292Z,-1.80
2019-02-21T04:30:27.595Z,-1.80
2019-02-21T04:33:02.311Z,-1.90
2019-02-21T04:35:35.970Z,-1.90
2019-02-21T04:38:08.639Z,-1.80
2019-02-21T04:40:44.647Z,-1.80
2019-02-21T04:43:17.583Z,-1.70
2019-02-21T04:45:53.231Z,-1.80
2019-02-21T04:48:32.472Z,-1.70
2019-02-21T04:51:05.824Z,-1.70
2019-02-21T04:53:46.820Z,-1.70
2019-02-21T04:56:19.557Z,-1.70
2019-02-21T04:58:56.572Z,-1.70
2019-02-21T05:01:32.725Z,-1.70
2019-02-21T05:04:07.505Z,-1.70
2019-02-21T05:06:40.779Z,-1.70
2019-02-21T05:09:15.526Z,-1.70
2019-02-21T05:11:50.935Z,-1.70
2019-02-21T05:14:26.658Z,-1.80
2019-02-21T05:17:03.560Z,-1.70
2019-02-21T05:19:36.548Z,-1.80
2019-02-21T05:22:10.746Z,-1.80
2019-02-21T05:24:44.133Z,-1.80
2019-02-21T05:27:22.656Z,-1.80
2019-02-21T05:29:56.583Z,-1.70
2019-02-21T05:32:46.989Z,-1.70
2019-02-21T05:35:39.819Z,-1.70
2019-02-21T05:38:43.656Z,-1.70
2019-02-21T05:41:34.627Z,-1.70
2019-02-21T05:44:33.396Z,-1.70
2019-02-21T05:47:41.470Z,-1.60
2019-02-21T05:50:32.526Z,-1.60
2019-02-21T05:53:23.532Z,-1.60
2019-02-21T05:56:13.786Z,-1.60
2019-02-21T05:59:00.606Z,-1.60
2019-02-21T06:01:52.652Z,-1.60
2019-02-21T06:04:45.952Z,-1.60
2019-02-21T06:07:27.935Z,-1.60
2019-02-21T06:10:15.231Z,-1.60
2019-02-21T06:13:07.641Z,-1.60
2019-02-21T06:15:54.722Z,-1.60
2019-02-21T06:18:39.555Z,-1.60
2019-02-21T06:21:30.223Z,-1.70
2019-02-21T06:24:26.110Z,-1.70
2019-02-21T06:27:38.123Z,-1.70
2019-02-21T06:30:31.711Z,-1.70
2019-02-21T06:33:06.196Z,-1.70
2019-02-21T06:35:39.481Z,-1.70
2019-02-21T06:38:12.799Z,-1.70
2019-02-21T06:40:43.182Z,-1.70
2019-02-21T06:43:14.275Z,-1.60
2019-02-21T06:45:47.139Z,-1.70
2019-02-21T06:48:19.265Z,-1.60
2019-02-21T06:50:52.544Z,-1.60
2019-02-21T06:53:27.711Z,-1.50
2019-02-21T06:56:01.544Z,-1.50
2019-02-21T06:58:35.255Z,-1.50
2019-02-21T07:01:07.551Z,-1.40
2019-02-21T07:03:40.295Z,-1.40
2019-02-21T07:06:14.698Z,-1.30
2019-02-21T07:08:49.539Z,-1.30
2019-02-21T07:11:25.508Z,-1.20
2019-02-21T07:13:59.361Z,-1.10
2019-02-21T07:16:32.452Z,-1.10
2019-02-21T07:19:03.702Z,-1.10
2019-02-21T07:21:36.662Z,-1.00
2019-02-21T07:24:06.512Z,-1.00
2019-02-21T07:26:42.778Z,-0.90
2019-02-21T07:29:16.735Z,-0.90
2019-02-21T07:31:50.436Z,-0.90
2019-02-21T07:34:22.655Z,-0.90
2019-02-21T07:36:56.479Z,-1.00
2019-02-21T07:39:36.092Z,-0.90
2019-02-21T07:42:03.304Z,-0.90
2019-02-21T07:44:35.484Z,-0.80
2019-02-21T07:47:06.894Z,-0.80
2019-02-21T07:49:37.634Z,-0.80
2019-02-21T07:52:07.478Z,-0.80
2019-02-21T07:54:39.433Z,-0.70
2019-02-21T07:57:10.421Z,-0.70
2019-02-21T07:59:47.138Z,-0.60
2019-02-21T08:02:17.189Z,-0.60
2019-02-21T08:04:47.450Z,-0.50
2019-02-21T08:07:17.643Z,-0.50
2019-02-21T08:09:50.327Z,-0.50
2019-02-21T08:12:24.235Z,-0.50
2019-02-21T08:14:59.285Z,-0.40
2019-02-21T08:17:31.558Z,-0.40
2019-02-21T08:20:08.731Z,-0.40
2019-02-21T08:22:41.228Z,-0.30
2019-02-21T08:25:14.227Z,-0.30
2019-02-21T08:27:49.163Z,-0.20
2019-02-21T08:30:23.376Z,-0.20
2019-02-21T08:33:15.479Z,-0.10
2019-02-21T08:35:46.835Z,-0.10
2019-02-21T08:38:18.404Z,-0.10
2019-02-21T08:40:54.092Z,0.00
2019-02-21T08:43:28.165Z,0.00
2019-02-21T08:46:01.919Z,0.00
2019-02-21T08:48:36.259Z,0.10
2019-02-21T08:51:08.532Z,0.00
2019-02-21T08:53:39.066Z,0.00
2019-02-21T08:56:11.299Z,-0.10
2019-02-21T08:58:46.275Z,0.00
2019-02-21T09:01:19.432Z,0.00
2019-02-21T09:03:51.506Z,0.00
2019-02-21T09:06:24.866Z,0.00
2019-02-21T09:08:55.575Z,0.00
2019-02-21T09:11:26.469Z,0.00
2019-02-21T09:13:57.695Z,0.10
2019-02-21T09:16:30.050Z,0.20
2019-02-21T09:19:03.736Z,0.20
2019-02-21T09:21:35.497Z,0.20
2019-02-21T09:24:08.351Z,0.20
2019-02-21T09:26:42.090Z,0.20
2019-02-21T09:29:13.539Z,0.20
2019-02-21T09:31:53.214Z,0.10
2019-02-21T09:34:28.744Z,0.20
2019-02-21T09:37:05.370Z,0.20
2019-02-21T09:39:39.827Z,0.20
2019-02-21T09:42:13.219Z,0.30
2019-02-21T09:44:45.951Z,0.30
2019-02-21T09:47:21.096Z,0.30
2019-02-21T09:49:53.695Z,0.40
2019-02-21T09:52:26.115Z,0.50
2019-02-21T09:55:00.671Z,0.50
2019-02-21T09:57:32.998Z,0.60
2019-02-21T10:00:06.731Z,0.60
2019-02-21T10:02:39.011Z,0.60
2019-02-21T10:05:11.278Z,0.70
2019-02-21T10:07:45.108Z,0.60
2019-02-21T10:10:20.256Z,0.50
2019-02-21T10:12:52.449Z,0.50
2019-02-21T10:15:25.216Z,0.50
2019-02-21T10:17:58.144Z,0.40
2019-02-21T10:20:32.711Z,0.40
2019-02-21T10:23:08.932Z,0.30
2019-02-21T10:25:41.322Z,0.30
2019-02-21T10:28:15.269Z,0.40
2019-02-21T10:30:53.000Z,0.40
2019-02-21T10:33:28.204Z,0.50
2019-02-21T10:36:02.951Z,0.60
2019-02-21T10:38:37.728Z,0.70
2019-02-21T10:41:11.395Z,0.70
2019-02-21T10:43:42.779Z,0.70
2019-02-21T10:46:12.770Z,0.80
2019-02-21T10:48:42.451Z,0.90
2019-02-21T10:51:17.471Z,0.90
2019-02-21T10:53:50.496Z,1.00
2019-02-21T10:56:23.296Z,1.10
2019-02-21T10:58:56.456Z,1.20
2019-02-21T11:01:30.226Z,1.20
2019-02-21T11:04:06.824Z,1.20
2019-02-21T11:06:39.887Z,1.20
2019-02-21T11:09:15.111Z,1.30
2019-02-21T11:11:47.139Z,1.40
2019-02-21T11:14:19.854Z,1.50
2019-02-21T11:16:55.585Z,1.60
2019-02-21T11:19:30.571Z,1.60
2019-02-21T11:22:02.958Z,1.70
2019-02-21T11:24:35.808Z,1.80
2019-02-21T11:27:06.497Z,1.80
2019-02-21T11:29:36.227Z,1.80
2019-02-21T11:32:10.965Z,1.80
2019-02-21T11:34:47.107Z,1.90
2019-02-21T11:37:20.767Z,1.90
2019-02-21T11:39:59.129Z,1.90
2019-02-21T11:42:31.405Z,2.10
2019-02-21T11:45:05.230Z,2.20
2019-02-21T11:47:36.422Z,2.20
2019-02-21T11:50:06.154Z,2.20
2019-02-21T11:52:41.983Z,2.10
2019-02-21T11:55:19.811Z,2.00
2019-02-21T11:57:53.319Z,1.90
2019-02-21T12:00:26.977Z,1.80
2019-02-21T12:03:00.673Z,1.70
2019-02-21T12:05:34.496Z,1.70
2019-02-21T12:08:07.635Z,1.70
2019-02-21T12:10:41.311Z,1.70
2019-02-21T12:13:16.072Z,1.70
2019-02-21T12:15:50.860Z,1.60
2019-02-21T12:18:24.543Z,1.60
2019-02-21T12:20:59.036Z,1.60
2019-02-21T12:23:34.854Z,1.60
2019-02-21T12:26:09.407Z,1.60
2019-02-21T12:28:43.331Z,1.50
2019-02-21T12:31:15.999Z,1.30
2019-02-21T12:33:47.079Z,1.30
2019-02-21T12:36:18.367Z,1.10
2019-02-21T12:38:51.522Z,1.10
2019-02-21T12:41:29.171Z,1.00
2019-02-21T12:44:03.166Z,1.00
2019-02-21T12:46:37.835Z,1.00
2019-02-21T12:49:12.874Z,1.00
2019-02-21T12:51:47.044Z,0.90
2019-02-21T12:54:21.823Z,0.80
2019-02-21T12:56:55.425Z,0.80
2019-02-21T12:59:32.351Z,0.90
2019-02-21T13:02:06.116Z,0.90
2019-02-21T13:04:38.217Z,0.90
2019-02-21T13:07:13.887Z,0.90
2019-02-21T13:09:46.719Z,0.90
2019-02-21T13:12:20.835Z,0.90
2019-02-21T13:14:56.167Z,0.90
2019-02-21T13:17:28.780Z,0.90
2019-02-21T13:20:02.563Z,1.00
2019-02-21T13:22:34.739Z,1.00
2019-02-21T13:25:10.748Z,1.10
2019-02-21T13:27:44.969Z,1.10
2019-02-21T13:30:20.932Z,1.10
2019-02-21T13:32:55.876Z,1.10
2019-02-21T13:35:32.264Z,1.10
2019-02-21T13:38:04.119Z,1.00
2019-02-21T13:40:35.211Z,0.90
2019-02-21T13:43:06.786Z,1.00
2019-02-21T13:45:40.034Z,1.00
2019-02-21T13:48:12.340Z,0.90
2019-02-21T13:50:47.494Z,0.80
2019-02-21T13:53:19.192Z,0.60
2019-02-21T13:55:52.065Z,0.50
2019-02-21T13:58:24.882Z,0.40
2019-02-21T14:01:00.808Z,0.30
2019-02-21T14:03:35.525Z,0.30
2019-02-21T14:06:12.491Z,0.20
2019-02-21T14:08:47.138Z,0.00
2019-02-21T14:11:24.833Z,0.00
2019-02-21T14:14:00.737Z,0.00
2019-02-21T14:16:43.779Z,0.10
2019-02-21T14:19:09.465Z,0.10
2019-02-21T14:21:44.735Z,0.10
2019-02-21T14:24:19.329Z,0.10
2019-02-21T14:26:54.607Z,0.10
2019-02-21T14:29:38.759Z,0.10
2019-02-21T14:32:02.419Z,0.10
2019-02-21T14:34:35.175Z,0.00
2019-02-21T14:37:09.949Z,0.10
2019-02-21T14:39:43.041Z,0.00
2019-02-21T14:42:15.977Z,0.00
2019-02-21T14:44:49.591Z,0.00
2019-02-21T14:47:24.611Z,0.00
2019-02-21T14:49:59.335Z,0.00
2019-02-21T14:52:32.080Z,0.00
2019-02-21T14:55:03.982Z,-0.20
2019-02-21T14:57:40.968Z,-0.20
2019-02-21T15:00:14.432Z,-0.30
2019-02-21T15:02:45.339Z,-0.30
2019-02-21T15:05:17.604Z,-0.40
2019-02-21T15:07:51.297Z,-0.40
2019-02-21T15:10:23.655Z,-0.50
2019-02-21T15:12:59.297Z,-0.60
2019-02-21T15:15:33.123Z,-0.70
2019-02-21T15:18:10.352Z,-0.80
2019-02-21T15:20:40.491Z,-0.80
2019-02-21T15:23:12.821Z,-0.90
2019-02-21T15:25:43.296Z,-0.90
2019-02-21T15:28:15.936Z,-0.90
2019-02-21T15:30:51.604Z,-1.00
2019-02-21T15:33:24.391Z,-1.00
2019-02-21T15:35:57.599Z,-1.00
2019-02-21T15:38:30.299Z,-1.00
2019-02-21T15:41:07.072Z,-1.00
2019-02-21T15:43:41.333Z,-1.00
2019-02-21T15:46:16.192Z,-1.00
2019-02-21T15:48:47.752Z,-1.00
2019-02-21T15:51:18.508Z,-1.00
2019-02-21T15:53:49.023Z,-1.00
2019-02-21T15:56:22.601Z,-1.00
2019-02-21T15:58:56.926Z,-1.00
2019-02-21T16:01:32.547Z,-1.00
2019-02-21T16:04:07.394Z,-1.10
2019-02-21T16:06:50.792Z,-1.20
2019-02-21T16:09:16.196Z,-1.20
2019-02-21T16:11:43.372Z,-1.20
2019-02-21T16:14:18.174Z,-1.20
2019-02-21T16:16:51.266Z,-1.10
2019-02-21T16:19:25.004Z,-1.20
2019-02-21T16:21:58.386Z,-1.20
2019-02-21T16:24:31.511Z,-1.10
2019-02-21T16:27:06.183Z,-1.10
2019-02-21T16:29:38.631Z,-1.10
2019-02-21T16:32:14.469Z,-1.10
2019-02-21T16:34:49.095Z,-1.10
2019-02-21T16:37:20.884Z,-1.10
2019-02-21T16:39:55.909Z,-1.10
2019-02-21T16:42:32.123Z,-1.10
2019-02-21T16:45:04.415Z,-1.10
2019-02-21T16:47:39.520Z,-1.10
2019-02-21T16:50:13.027Z,-1.10
2019-02-21T16:52:47.453Z,-1.10
2019-02-21T16:55:20.807Z,-1.10
2019-02-21T16:57:53.453Z,-1.20
2019-02-21T17:00:42.168Z,-1.20
2019-02-21T17:03:02.597Z,-1.20
2019-02-21T17:05:36.595Z,-1.20
2019-02-21T17:08:09.618Z,-1.20
2019-02-21T17:10:43.367Z,-1.20
2019-02-21T17:13:16.713Z,-1.20
2019-02-21T17:15:52.273Z,-1.20
2019-02-21T17:18:28.546Z,-1.20
2019-02-21T17:21:03.527Z,-1.20
2019-02-21T17:23:37.544Z,-1.30
2019-02-21T17:26:11.914Z,-1.30
2019-02-21T17:28:44.091Z,-1.30
2019-02-21T17:31:13.819Z,-1.30
2019-02-21T17:33:44.492Z,-1.30
2019-02-21T17:36:15.385Z,-1.40
2019-02-21T17:38:45.896Z,-1.40
2019-02-21T17:41:18.147Z,-1.40
2019-02-21T17:43:53.124Z,-1.50
2019-02-21T17:46:26.415Z,-1.50
2019-02-21T17:49:00.626Z,-1.60
2019-02-21T17:51:31.974Z,-1.70
2019-02-21T17:54:02.719Z,-1.80
2019-02-21T17:56:33.855Z,-1.80
2019-02-21T17:59:03.634Z,-1.80
2019-02-21T18:01:37.699Z,-1.90
2019-02-21T18:04:12.536Z,-2.00
2019-02-21T18:06:46.312Z,-2.00
2019-02-21T18:09:20.039Z,-2.10
2019-02-21T18:11:52.327Z,-2.10
2019-02-21T18:14:25.729Z,-2.20
2019-02-21T18:16:56.839Z,-2.20
2019-02-21T18:19:31.553Z,-2.30
2019-02-21T18:22:06.473Z,-2.40
2019-02-21T18:24:38.896Z,-2.40
2019-02-21T18:27:20.095Z,-2.40
2019-02-21T18:29:51.763Z,-2.50
2019-02-21T18:32:23.693Z,-2.50
2019-02-21T18:34:56.968Z,-2.60
2019-02-21T18:37:30.862Z,-2.60
2019-02-21T18:40:02.223Z,-2.60
2019-02-21T18:42:32.419Z,-2.60
2019-02-21T18:45:06.381Z,-2.60
2019-02-21T18:47:37.832Z,-2.60
2019-02-21T18:50:08.574Z,-2.70
2019-02-21T18:52:39.740Z,-2.70
2019-02-21T18:55:15.649Z,-2.80
2019-02-21T18:57:51.407Z,-2.70
2019-02-21T19:00:25.407Z,-2.80
2019-02-21T19:03:00.015Z,-2.80
2019-02-21T19:05:35.754Z,-2.80
2019-02-21T19:08:07.267Z,-2.90
2019-02-21T19:10:40.452Z,-2.90
2019-02-21T19:13:13.984Z,-3.00
2019-02-21T19:15:48.708Z,-3.00
2019-02-21T19:18:24.203Z,-3.00
2019-02-21T19:20:57.004Z,-3.10
2019-02-21T19:23:32.712Z,-3.10
2019-02-21T19:26:07.568Z,-3.20
2019-02-21T19:28:41.903Z,-3.20
2019-02-21T19:31:18.434Z,-3.20
2019-02-21T19:33:52.148Z,-3.20
2019-02-21T19:36:25.532Z,-3.20
2019-02-21T19:39:02.152Z,-3.30
2019-02-21T19:41:35.551Z,-3.30
2019-02-21T19:44:09.824Z,-3.30
2019-02-21T19:46:43.523Z,-3.30
2019-02-21T19:49:16.708Z,-3.40
2019-02-21T19:51:52.735Z,-3.40
2019-02-21T19:54:23.044Z,-3.40
2019-02-21T19:56:58.025Z,-3.40
2019-02-21T19:59:32.209Z,-3.40
2019-02-21T20:02:07.019Z,-3.40
2019-02-21T20:04:40.897Z,-3.40
2019-02-21T20:07:14.820Z,-3.40
2019-02-21T20:09:48.470Z,-3.40
2019-02-21T20:12:22.470Z,-3.40
2019-02-21T20:14:53.025Z,-3.40
2019-02-21T20:17:29.395Z,-3.50
2019-02-21T20:20:04.068Z,-3.50
2019-02-21T20:22:38.847Z,-3.50
2019-02-21T20:25:11.792Z,-3.50
2019-02-21T20:27:41.911Z,-3.50
2019-02-21T20:30:13.740Z,-3.50
2019-02-21T20:32:48.048Z,-3.50
2019-02-21T20:35:21.405Z,-3.50
2019-02-21T20:37:55.372Z,-3.60
2019-02-21T20:40:30.438Z,-3.60
2019-02-21T20:43:04.228Z,-3.60
2019-02-21T20:45:37.891Z,-3.60
2019-02-21T20:48:11.210Z,-3.70
2019-02-21T20:50:56.098Z,-3.70
2019-02-21T20:53:21.123Z,-3.60
2019-02-21T20:55:52.907Z,-3.60
2019-02-21T20:58:26.283Z,-3.60
2019-02-21T21:01:00.710Z,-3.70
2019-02-21T21:03:37.703Z,-3.70
2019-02-21T21:06:11.505Z,-3.70
2019-02-21T21:08:46.875Z,-3.80
2019-02-21T21:11:16.681Z,-3.90
2019-02-21T21:13:47.508Z,-4.00
2019-02-21T21:16:23.005Z,-4.10
2019-02-21T21:18:58.691Z,-4.20
2019-02-21T21:21:32.228Z,-4.30
2019-02-21T21:24:05.247Z,-4.40
2019-02-21T21:26:40.996Z,-4.50
2019-02-21T21:29:34.431Z,-4.60
2019-02-21T21:32:09.197Z,-4.70
2019-02-21T21:34:44.051Z,-4.80
2019-02-21T21:37:20.103Z,-4.80
2019-02-21T21:39:54.231Z,-4.90
2019-02-21T21:42:27.533Z,-5.00
2019-02-21T21:44:59.844Z,-5.10
2019-02-21T21:47:33.419Z,-5.20
2019-02-21T21:50:05.747Z,-5.20
2019-02-21T21:52:41.189Z,-5.30
2019-02-21T21:55:17.706Z,-5.30
2019-02-21T21:57:51.714Z,-5.30
2019-02-21T22:00:22.667Z,-5.40
2019-02-21T22:02:53.230Z,-5.40
2019-02-21T22:05:22.699Z,-5.50
2019-02-21T22:07:56.418Z,-5.50
2019-02-21T22:10:33.957Z,-5.50
2019-02-21T22:13:06.559Z,-5.60
2019-02-21T22:15:40.848Z,-5.60
2019-02-21T22:18:15.123Z,-5.70
2019-02-21T22:20:49.927Z,-5.70
2019-02-21T22:23:22.823Z,-5.70
2019-02-21T22:25:55.478Z,-5.80
2019-02-21T22:28:35.953Z,-5.80
2019-02-21T22:31:09.774Z,-5.90
2019-02-21T22:33:41.758Z,-5.90
2019-02-21T22:36:15.421Z,-5.90
2019-02-21T22:38:53.514Z,-6.00
2019-02-21T22:41:28.086Z,-6.00
2019-02-21T22:44:04.304Z,-6.00
2019-02-21T22:46:38.271Z,-6.00
2019-02-21T22:49:11.830Z,-6.10
2019-02-21T22:51:43.547Z,-6.10
2019-02-21T22:54:18.380Z,-6.10
2019-02-21T22:56:53.324Z,-6.20
2019-02-21T22:59:28.682Z,-6.30
2019-02-21T23:02:05.193Z,-6.30
2019-02-21T23:05:23.621Z,-6.40
2019-02-21T23:08:31.423Z,-6.40
2019-02-21T23:11:08.127Z,-6.50
2019-02-21T23:13:45.534Z,-6.50
2019-02-21T23:16:20.687Z,-6.50
2019-02-21T23:18:55.023Z,-6.60
2019-02-21T23:21:27.379Z,-6.60
2019-02-21T23:24:00.029Z,-6.60
2019-02-21T23:26:34.985Z,-6.70
2019-02-21T23:29:07.490Z,-6.70
2019-02-21T23:31:39.937Z,-6.70
2019-02-21T23:34:30.753Z,-6.70
2019-02-21T23:37:04.514Z,-6.70
2019-02-21T23:39:39.263Z,-6.80
2019-02-21T23:42:14.971Z,-6.80
2019-02-21T23:44:51.715Z,-6.90
2019-02-21T23:47:26.251Z,-6.80
2019-02-21T23:49:59.390Z,-6.80
2019-02-21T23:52:33.723Z,-6.90
2019-02-21T23:55:07.319Z,-7.00
2019-02-21T23:57:37.626Z,-7.00
